sensor_id;sensor_type;location;lat;lon;timestamp;P1;durP1;ratioP1;P2;durP2;ratioP2
72198;SDS011;60103;51.014;16.992;2023-08-01T00:00:38;6.30;;;1.80;;
72198;SDS011;60103;51.014;16.992;2023-08-01T00:03:25;6.40;;;2.20;;
72198;SDS011;60103;51.014;16.992;2023-08-01T00:05:54;6.40;;;2.50;;
72198;SDS011;60103;51.014;16.992;2023-08-01T00:08:23;8.40;;;1.80;;
72198;SDS011;60103;51.014;16.992;2023-08-01T00:10:52;7.30;;;2.00;;
72198;SDS011;60103;51.014;16.992;2023-08-01T00:13:20;7.00;;;2.00;;
72198;SDS011;60103;51.014;16.992;2023-08-01T00:15:49;6.70;;;1.70;;
72198;SDS011;60103;51.014;16.992;2023-08-01T00:18:34;6.50;;;1.80;;
72198;SDS011;60103;51.014;16.992;2023-08-01T00:21:04;8.00;;;2.00;;
72198;SDS011;60103;51.014;16.992;2023-08-01T00:23:33;6.40;;;1.90;;
72198;SDS011;60103;51.014;16.992;2023-08-01T00:26:02;8.10;;;2.20;;
72198;SDS011;60103;51.014;16.992;2023-08-01T00:28:31;6.70;;;1.80;;
72198;SDS011;60103;51.014;16.992;2023-08-01T00:31:04;9.90;;;2.20;;
72198;SDS011;60103;51.014;16.992;2023-08-01T00:33:34;8.90;;;1.90;;
72198;SDS011;60103;51.014;16.992;2023-08-01T00:36:04;6.30;;;2.20;;
72198;SDS011;60103;51.014;16.992;2023-08-01T00:38:37;8.50;;;2.20;;
72198;SDS011;60103;51.014;16.992;2023-08-01T00:41:06;7.20;;;1.80;;
72198;SDS011;60103;51.014;16.992;2023-08-01T00:43:35;8.70;;;1.90;;
72198;SDS011;60103;51.014;16.992;2023-08-01T00:46:05;6.00;;;2.10;;
72198;SDS011;60103;51.014;16.992;2023-08-01T00:48:35;5.60;;;1.60;;
72198;SDS011;60103;51.014;16.992;2023-08-01T00:51:05;8.40;;;1.90;;
72198;SDS011;60103;51.014;16.992;2023-08-01T00:53:35;7.00;;;1.80;;
72198;SDS011;60103;51.014;16.992;2023-08-01T00:56:04;6.30;;;1.50;;
72198;SDS011;60103;51.014;16.992;2023-08-01T00:58:33;6.10;;;1.70;;
72198;SDS011;60103;51.014;16.992;2023-08-01T01:01:03;7.10;;;2.00;;
72198;SDS011;60103;51.014;16.992;2023-08-01T01:03:32;6.60;;;2.00;;
72198;SDS011;60103;51.014;16.992;2023-08-01T01:06:24;8.00;;;2.10;;
72198;SDS011;60103;51.014;16.992;2023-08-01T01:08:52;6.80;;;2.10;;
72198;SDS011;60103;51.014;16.992;2023-08-01T01:11:22;6.70;;;2.10;;
72198;SDS011;60103;51.014;16.992;2023-08-01T01:13:52;5.50;;;1.60;;
72198;SDS011;60103;51.014;16.992;2023-08-01T01:16:22;6.30;;;1.70;;
72198;SDS011;60103;51.014;16.992;2023-08-01T01:18:51;8.00;;;1.80;;
72198;SDS011;60103;51.014;16.992;2023-08-01T01:21:20;7.00;;;2.00;;
72198;SDS011;60103;51.014;16.992;2023-08-01T01:23:48;7.20;;;2.10;;
72198;SDS011;60103;51.014;16.992;2023-08-01T01:26:18;6.90;;;2.20;;
72198;SDS011;60103;51.014;16.992;2023-08-01T01:28:49;5.90;;;1.70;;
72198;SDS011;60103;51.014;16.992;2023-08-01T01:31:19;7.50;;;2.30;;
72198;SDS011;60103;51.014;16.992;2023-08-01T01:33:48;6.60;;;1.80;;
72198;SDS011;60103;51.014;16.992;2023-08-01T01:36:17;7.20;;;1.80;;
72198;SDS011;60103;51.014;16.992;2023-08-01T01:38:46;8.60;;;2.00;;
72198;SDS011;60103;51.014;16.992;2023-08-01T01:41:15;7.20;;;2.10;;
72198;SDS011;60103;51.014;16.992;2023-08-01T01:43:44;7.60;;;2.10;;
72198;SDS011;60103;51.014;16.992;2023-08-01T01:46:12;7.60;;;1.80;;
72198;SDS011;60103;51.014;16.992;2023-08-01T01:48:41;6.40;;;1.90;;
72198;SDS011;60103;51.014;16.992;2023-08-01T01:51:10;7.70;;;2.10;;
72198;SDS011;60103;51.014;16.992;2023-08-01T01:53:39;6.70;;;2.10;;
72198;SDS011;60103;51.014;16.992;2023-08-01T01:56:08;6.20;;;1.70;;
72198;SDS011;60103;51.014;16.992;2023-08-01T01:58:37;6.40;;;1.80;;
72198;SDS011;60103;51.014;16.992;2023-08-01T02:01:06;8.40;;;2.40;;
72198;SDS011;60103;51.014;16.992;2023-08-01T02:03:35;7.20;;;2.00;;
72198;SDS011;60103;51.014;16.992;2023-08-01T02:06:04;6.30;;;1.90;;
72198;SDS011;60103;51.014;16.992;2023-08-01T02:08:33;7.30;;;1.90;;
72198;SDS011;60103;51.014;16.992;2023-08-01T02:11:02;7.50;;;2.10;;
72198;SDS011;60103;51.014;16.992;2023-08-01T02:13:32;7.40;;;1.80;;
72198;SDS011;60103;51.014;16.992;2023-08-01T02:16:02;7.20;;;2.00;;
72198;SDS011;60103;51.014;16.992;2023-08-01T02:18:31;6.80;;;2.00;;
72198;SDS011;60103;51.014;16.992;2023-08-01T02:21:00;6.30;;;1.90;;
72198;SDS011;60103;51.014;16.992;2023-08-01T02:23:28;6.60;;;1.90;;
72198;SDS011;60103;51.014;16.992;2023-08-01T02:25:57;6.70;;;1.90;;
72198;SDS011;60103;51.014;16.992;2023-08-01T02:28:26;5.80;;;1.70;;
72198;SDS011;60103;51.014;16.992;2023-08-01T02:30:55;6.10;;;1.70;;
72198;SDS011;60103;51.014;16.992;2023-08-01T02:33:23;6.10;;;2.00;;
72198;SDS011;60103;51.014;16.992;2023-08-01T02:35:53;6.30;;;1.90;;
72198;SDS011;60103;51.014;16.992;2023-08-01T02:38:21;6.10;;;2.00;;
72198;SDS011;60103;51.014;16.992;2023-08-01T02:40:50;7.00;;;2.20;;
72198;SDS011;60103;51.014;16.992;2023-08-01T02:43:19;6.30;;;2.00;;
72198;SDS011;60103;51.014;16.992;2023-08-01T02:45:48;6.10;;;1.90;;
72198;SDS011;60103;51.014;16.992;2023-08-01T02:48:17;8.10;;;2.10;;
72198;SDS011;60103;51.014;16.992;2023-08-01T02:50:47;7.20;;;2.20;;
72198;SDS011;60103;51.014;16.992;2023-08-01T02:53:16;7.50;;;2.10;;
72198;SDS011;60103;51.014;16.992;2023-08-01T02:55:44;7.90;;;2.20;;
72198;SDS011;60103;51.014;16.992;2023-08-01T02:58:16;6.80;;;1.90;;
72198;SDS011;60103;51.014;16.992;2023-08-01T03:00:44;7.20;;;2.20;;
72198;SDS011;60103;51.014;16.992;2023-08-01T03:03:13;6.50;;;2.30;;
72198;SDS011;60103;51.014;16.992;2023-08-01T03:05:42;7.00;;;2.20;;
72198;SDS011;60103;51.014;16.992;2023-08-01T03:08:11;6.40;;;2.00;;
72198;SDS011;60103;51.014;16.992;2023-08-01T03:10:41;8.30;;;2.20;;
72198;SDS011;60103;51.014;16.992;2023-08-01T03:13:10;7.10;;;2.20;;
72198;SDS011;60103;51.014;16.992;2023-08-01T03:15:38;6.80;;;2.20;;
72198;SDS011;60103;51.014;16.992;2023-08-01T03:18:07;8.30;;;2.10;;
72198;SDS011;60103;51.014;16.992;2023-08-01T03:20:36;7.80;;;2.70;;
72198;SDS011;60103;51.014;16.992;2023-08-01T03:23:05;7.90;;;2.00;;
72198;SDS011;60103;51.014;16.992;2023-08-01T03:25:34;9.30;;;1.80;;
72198;SDS011;60103;51.014;16.992;2023-08-01T03:28:03;5.80;;;2.00;;
72198;SDS011;60103;51.014;16.992;2023-08-01T03:30:33;9.30;;;2.40;;
72198;SDS011;60103;51.014;16.992;2023-08-01T03:33:02;7.70;;;2.30;;
72198;SDS011;60103;51.014;16.992;2023-08-01T03:35:31;6.80;;;2.20;;
72198;SDS011;60103;51.014;16.992;2023-08-01T03:38:00;7.00;;;2.20;;
72198;SDS011;60103;51.014;16.992;2023-08-01T03:40:30;7.40;;;2.10;;
72198;SDS011;60103;51.014;16.992;2023-08-01T03:42:59;7.40;;;2.00;;
72198;SDS011;60103;51.014;16.992;2023-08-01T03:45:28;6.60;;;2.10;;
72198;SDS011;60103;51.014;16.992;2023-08-01T03:47:57;7.40;;;2.40;;
72198;SDS011;60103;51.014;16.992;2023-08-01T03:50:26;7.10;;;1.90;;
72198;SDS011;60103;51.014;16.992;2023-08-01T03:52:55;7.30;;;2.30;;
72198;SDS011;60103;51.014;16.992;2023-08-01T03:55:23;7.20;;;2.40;;
72198;SDS011;60103;51.014;16.992;2023-08-01T03:57:52;7.40;;;2.20;;
72198;SDS011;60103;51.014;16.992;2023-08-01T04:00:21;8.30;;;2.30;;
72198;SDS011;60103;51.014;16.992;2023-08-01T04:02:50;7.90;;;2.60;;
72198;SDS011;60103;51.014;16.992;2023-08-01T04:05:19;9.20;;;2.80;;
72198;SDS011;60103;51.014;16.992;2023-08-01T04:07:48;8.20;;;2.40;;
72198;SDS011;60103;51.014;16.992;2023-08-01T04:10:17;6.60;;;2.20;;
72198;SDS011;60103;51.014;16.992;2023-08-01T04:12:45;7.30;;;2.90;;
72198;SDS011;60103;51.014;16.992;2023-08-01T04:15:14;7.90;;;2.70;;
72198;SDS011;60103;51.014;16.992;2023-08-01T04:17:43;7.20;;;2.40;;
72198;SDS011;60103;51.014;16.992;2023-08-01T04:20:12;7.40;;;2.50;;
72198;SDS011;60103;51.014;16.992;2023-08-01T04:22:41;8.50;;;2.20;;
72198;SDS011;60103;51.014;16.992;2023-08-01T04:25:10;9.30;;;2.60;;
72198;SDS011;60103;51.014;16.992;2023-08-01T04:27:39;10.50;;;3.10;;
72198;SDS011;60103;51.014;16.992;2023-08-01T04:30:08;8.20;;;2.60;;
72198;SDS011;60103;51.014;16.992;2023-08-01T04:32:37;7.10;;;2.70;;
72198;SDS011;60103;51.014;16.992;2023-08-01T04:35:06;7.40;;;2.50;;
72198;SDS011;60103;51.014;16.992;2023-08-01T04:37:35;8.90;;;2.90;;
72198;SDS011;60103;51.014;16.992;2023-08-01T04:40:03;8.70;;;2.40;;
72198;SDS011;60103;51.014;16.992;2023-08-01T04:42:33;8.70;;;2.60;;
72198;SDS011;60103;51.014;16.992;2023-08-01T04:45:02;11.80;;;2.40;;
72198;SDS011;60103;51.014;16.992;2023-08-01T04:47:30;8.60;;;2.50;;
72198;SDS011;60103;51.014;16.992;2023-08-01T04:49:59;8.50;;;2.20;;
72198;SDS011;60103;51.014;16.992;2023-08-01T04:52:28;6.90;;;2.50;;
72198;SDS011;60103;51.014;16.992;2023-08-01T04:54:57;7.30;;;2.50;;
72198;SDS011;60103;51.014;16.992;2023-08-01T04:57:26;7.80;;;2.90;;
72198;SDS011;60103;51.014;16.992;2023-08-01T04:59:54;7.80;;;2.30;;
72198;SDS011;60103;51.014;16.992;2023-08-01T05:02:23;8.60;;;2.20;;
72198;SDS011;60103;51.014;16.992;2023-08-01T05:04:52;8.50;;;2.40;;
72198;SDS011;60103;51.014;16.992;2023-08-01T05:07:21;10.40;;;2.50;;
72198;SDS011;60103;51.014;16.992;2023-08-01T05:09:50;6.80;;;2.50;;
72198;SDS011;60103;51.014;16.992;2023-08-01T05:12:18;7.50;;;2.40;;
72198;SDS011;60103;51.014;16.992;2023-08-01T05:14:47;8.30;;;2.70;;
72198;SDS011;60103;51.014;16.992;2023-08-01T05:17:16;7.40;;;2.20;;
72198;SDS011;60103;51.014;16.992;2023-08-01T05:19:45;8.20;;;2.90;;
72198;SDS011;60103;51.014;16.992;2023-08-01T05:22:13;7.20;;;2.60;;
72198;SDS011;60103;51.014;16.992;2023-08-01T05:24:42;7.20;;;2.30;;
72198;SDS011;60103;51.014;16.992;2023-08-01T05:27:11;7.90;;;2.40;;
72198;SDS011;60103;51.014;16.992;2023-08-01T05:29:40;7.80;;;2.30;;
72198;SDS011;60103;51.014;16.992;2023-08-01T05:32:09;7.60;;;2.70;;
72198;SDS011;60103;51.014;16.992;2023-08-01T05:34:38;7.50;;;2.50;;
72198;SDS011;60103;51.014;16.992;2023-08-01T05:37:07;7.50;;;2.50;;
72198;SDS011;60103;51.014;16.992;2023-08-01T05:39:36;8.10;;;2.20;;
72198;SDS011;60103;51.014;16.992;2023-08-01T05:42:05;7.60;;;2.50;;
72198;SDS011;60103;51.014;16.992;2023-08-01T05:44:37;8.60;;;2.10;;
72198;SDS011;60103;51.014;16.992;2023-08-01T05:47:06;7.60;;;2.50;;
72198;SDS011;60103;51.014;16.992;2023-08-01T05:49:34;7.80;;;2.60;;
72198;SDS011;60103;51.014;16.992;2023-08-01T05:52:04;8.10;;;2.60;;
72198;SDS011;60103;51.014;16.992;2023-08-01T05:54:33;9.00;;;2.40;;
72198;SDS011;60103;51.014;16.992;2023-08-01T05:57:02;7.20;;;2.40;;
72198;SDS011;60103;51.014;16.992;2023-08-01T05:59:31;8.30;;;2.30;;
72198;SDS011;60103;51.014;16.992;2023-08-01T06:02:00;6.80;;;2.00;;
72198;SDS011;60103;51.014;16.992;2023-08-01T06:04:29;9.20;;;2.60;;
72198;SDS011;60103;51.014;16.992;2023-08-01T06:06:58;7.60;;;2.50;;
72198;SDS011;60103;51.014;16.992;2023-08-01T06:09:27;8.90;;;2.10;;
72198;SDS011;60103;51.014;16.992;2023-08-01T06:11:56;7.00;;;2.20;;
72198;SDS011;60103;51.014;16.992;2023-08-01T06:14:25;7.60;;;2.10;;
72198;SDS011;60103;51.014;16.992;2023-08-01T06:16:53;8.30;;;3.10;;
72198;SDS011;60103;51.014;16.992;2023-08-01T06:19:22;8.00;;;2.60;;
72198;SDS011;60103;51.014;16.992;2023-08-01T06:21:51;7.10;;;2.60;;
72198;SDS011;60103;51.014;16.992;2023-08-01T06:24:20;8.80;;;2.50;;
72198;SDS011;60103;51.014;16.992;2023-08-01T06:26:49;7.80;;;2.80;;
72198;SDS011;60103;51.014;16.992;2023-08-01T06:29:18;7.20;;;2.20;;
72198;SDS011;60103;51.014;16.992;2023-08-01T06:31:47;7.10;;;2.30;;
72198;SDS011;60103;51.014;16.992;2023-08-01T06:34:16;7.20;;;2.40;;
72198;SDS011;60103;51.014;16.992;2023-08-01T06:36:44;7.30;;;2.60;;
72198;SDS011;60103;51.014;16.992;2023-08-01T06:39:13;8.90;;;2.70;;
72198;SDS011;60103;51.014;16.992;2023-08-01T06:41:42;7.60;;;2.50;;
72198;SDS011;60103;51.014;16.992;2023-08-01T06:44:11;8.90;;;2.60;;
72198;SDS011;60103;51.014;16.992;2023-08-01T06:46:40;10.10;;;2.70;;
72198;SDS011;60103;51.014;16.992;2023-08-01T06:49:10;8.30;;;2.30;;
72198;SDS011;60103;51.014;16.992;2023-08-01T06:51:39;9.60;;;2.90;;
72198;SDS011;60103;51.014;16.992;2023-08-01T06:54:10;8.30;;;2.40;;
72198;SDS011;60103;51.014;16.992;2023-08-01T06:56:38;8.30;;;2.70;;
72198;SDS011;60103;51.014;16.992;2023-08-01T06:59:08;7.30;;;2.70;;
72198;SDS011;60103;51.014;16.992;2023-08-01T07:01:37;8.30;;;3.00;;
72198;SDS011;60103;51.014;16.992;2023-08-01T07:04:12;7.70;;;2.60;;
72198;SDS011;60103;51.014;16.992;2023-08-01T07:06:41;8.70;;;2.80;;
72198;SDS011;60103;51.014;16.992;2023-08-01T07:09:11;8.00;;;2.70;;
72198;SDS011;60103;51.014;16.992;2023-08-01T07:11:39;9.40;;;2.70;;
72198;SDS011;60103;51.014;16.992;2023-08-01T07:14:08;10.10;;;3.50;;
72198;SDS011;60103;51.014;16.992;2023-08-01T07:16:37;8.70;;;2.50;;
72198;SDS011;60103;51.014;16.992;2023-08-01T07:19:06;8.20;;;2.80;;
72198;SDS011;60103;51.014;16.992;2023-08-01T07:21:35;8.40;;;3.20;;
72198;SDS011;60103;51.014;16.992;2023-08-01T07:24:04;8.40;;;2.80;;
72198;SDS011;60103;51.014;16.992;2023-08-01T07:26:33;7.10;;;2.40;;
72198;SDS011;60103;51.014;16.992;2023-08-01T07:29:02;8.60;;;2.60;;
72198;SDS011;60103;51.014;16.992;2023-08-01T07:31:31;10.30;;;3.30;;
72198;SDS011;60103;51.014;16.992;2023-08-01T07:34:00;8.00;;;2.60;;
72198;SDS011;60103;51.014;16.992;2023-08-01T07:36:29;10.00;;;3.00;;
72198;SDS011;60103;51.014;16.992;2023-08-01T07:38:57;7.40;;;2.60;;
72198;SDS011;60103;51.014;16.992;2023-08-01T07:41:26;9.70;;;2.70;;
72198;SDS011;60103;51.014;16.992;2023-08-01T07:43:55;7.50;;;2.30;;
72198;SDS011;60103;51.014;16.992;2023-08-01T07:46:24;8.50;;;2.90;;
72198;SDS011;60103;51.014;16.992;2023-08-01T07:48:53;9.40;;;2.90;;
72198;SDS011;60103;51.014;16.992;2023-08-01T07:51:22;7.60;;;2.70;;
72198;SDS011;60103;51.014;16.992;2023-08-01T07:53:53;8.00;;;2.50;;
72198;SDS011;60103;51.014;16.992;2023-08-01T07:56:23;8.90;;;2.70;;
72198;SDS011;60103;51.014;16.992;2023-08-01T07:58:51;7.10;;;2.50;;
72198;SDS011;60103;51.014;16.992;2023-08-01T08:01:20;7.40;;;2.10;;
72198;SDS011;60103;51.014;16.992;2023-08-01T08:03:49;7.90;;;2.40;;
72198;SDS011;60103;51.014;16.992;2023-08-01T08:06:18;8.30;;;2.20;;
72198;SDS011;60103;51.014;16.992;2023-08-01T08:08:49;8.40;;;2.10;;
72198;SDS011;60103;51.014;16.992;2023-08-01T08:11:18;8.00;;;2.30;;
72198;SDS011;60103;51.014;16.992;2023-08-01T08:13:47;8.30;;;2.50;;
72198;SDS011;60103;51.014;16.992;2023-08-01T08:16:16;8.70;;;2.70;;
72198;SDS011;60103;51.014;16.992;2023-08-01T08:18:45;8.30;;;2.40;;
72198;SDS011;60103;51.014;16.992;2023-08-01T08:21:14;8.50;;;2.70;;
72198;SDS011;60103;51.014;16.992;2023-08-01T08:23:42;9.60;;;2.40;;
72198;SDS011;60103;51.014;16.992;2023-08-01T08:26:11;7.60;;;2.80;;
72198;SDS011;60103;51.014;16.992;2023-08-01T08:28:40;7.90;;;2.60;;
72198;SDS011;60103;51.014;16.992;2023-08-01T08:31:10;8.90;;;2.50;;
72198;SDS011;60103;51.014;16.992;2023-08-01T08:33:39;8.20;;;2.50;;
72198;SDS011;60103;51.014;16.992;2023-08-01T08:36:08;7.70;;;2.60;;
72198;SDS011;60103;51.014;16.992;2023-08-01T08:38:37;8.20;;;2.60;;
72198;SDS011;60103;51.014;16.992;2023-08-01T08:41:08;7.80;;;2.60;;
72198;SDS011;60103;51.014;16.992;2023-08-01T08:43:38;8.10;;;2.40;;
72198;SDS011;60103;51.014;16.992;2023-08-01T08:46:06;7.60;;;2.20;;
72198;SDS011;60103;51.014;16.992;2023-08-01T08:48:37;8.60;;;2.40;;
72198;SDS011;60103;51.014;16.992;2023-08-01T08:51:08;8.40;;;2.60;;
72198;SDS011;60103;51.014;16.992;2023-08-01T08:53:37;7.90;;;2.40;;
72198;SDS011;60103;51.014;16.992;2023-08-01T08:56:09;7.50;;;2.50;;
72198;SDS011;60103;51.014;16.992;2023-08-01T08:58:38;7.40;;;2.30;;
72198;SDS011;60103;51.014;16.992;2023-08-01T09:01:07;8.90;;;2.40;;
72198;SDS011;60103;51.014;16.992;2023-08-01T09:03:36;9.20;;;2.30;;
72198;SDS011;60103;51.014;16.992;2023-08-01T09:06:12;7.10;;;2.30;;
72198;SDS011;60103;51.014;16.992;2023-08-01T09:08:56;8.60;;;2.80;;
72198;SDS011;60103;51.014;16.992;2023-08-01T09:11:26;8.20;;;2.60;;
72198;SDS011;60103;51.014;16.992;2023-08-01T09:13:55;7.80;;;2.50;;
72198;SDS011;60103;51.014;16.992;2023-08-01T09:16:24;9.60;;;2.50;;
72198;SDS011;60103;51.014;16.992;2023-08-01T09:18:53;10.00;;;2.70;;
72198;SDS011;60103;51.014;16.992;2023-08-01T09:21:22;7.90;;;2.40;;
72198;SDS011;60103;51.014;16.992;2023-08-01T09:23:51;8.50;;;2.00;;
72198;SDS011;60103;51.014;16.992;2023-08-01T09:26:20;6.40;;;1.90;;
72198;SDS011;60103;51.014;16.992;2023-08-01T09:28:55;7.10;;;2.40;;
72198;SDS011;60103;51.014;16.992;2023-08-01T09:31:28;7.70;;;2.10;;
72198;SDS011;60103;51.014;16.992;2023-08-01T09:34:00;7.40;;;2.20;;
72198;SDS011;60103;51.014;16.992;2023-08-01T09:36:29;6.20;;;2.00;;
72198;SDS011;60103;51.014;16.992;2023-08-01T09:38:59;8.80;;;2.30;;
72198;SDS011;60103;51.014;16.992;2023-08-01T09:41:28;7.70;;;2.60;;
72198;SDS011;60103;51.014;16.992;2023-08-01T09:43:58;7.90;;;2.30;;
72198;SDS011;60103;51.014;16.992;2023-08-01T09:46:27;7.90;;;2.30;;
72198;SDS011;60103;51.014;16.992;2023-08-01T09:49:05;8.30;;;2.20;;
72198;SDS011;60103;51.014;16.992;2023-08-01T09:51:48;6.30;;;2.00;;
72198;SDS011;60103;51.014;16.992;2023-08-01T09:54:18;8.00;;;2.40;;
72198;SDS011;60103;51.014;16.992;2023-08-01T09:56:48;7.20;;;2.00;;
72198;SDS011;60103;51.014;16.992;2023-08-01T10:01:52;7.90;;;2.30;;
72198;SDS011;60103;51.014;16.992;2023-08-01T10:04:31;7.70;;;2.30;;
72198;SDS011;60103;51.014;16.992;2023-08-01T10:07:08;7.10;;;2.10;;
72198;SDS011;60103;51.014;16.992;2023-08-01T10:09:42;8.90;;;2.20;;
72198;SDS011;60103;51.014;16.992;2023-08-01T10:12:12;8.60;;;2.40;;
72198;SDS011;60103;51.014;16.992;2023-08-01T10:14:41;8.30;;;2.50;;
72198;SDS011;60103;51.014;16.992;2023-08-01T10:17:10;6.80;;;2.30;;
72198;SDS011;60103;51.014;16.992;2023-08-01T10:19:39;7.10;;;2.40;;
72198;SDS011;60103;51.014;16.992;2023-08-01T10:22:10;7.40;;;2.40;;
72198;SDS011;60103;51.014;16.992;2023-08-01T10:24:40;7.10;;;2.30;;
72198;SDS011;60103;51.014;16.992;2023-08-01T10:27:19;7.10;;;2.10;;
72198;SDS011;60103;51.014;16.992;2023-08-01T10:29:58;7.60;;;2.10;;
72198;SDS011;60103;51.014;16.992;2023-08-01T10:32:37;7.20;;;2.20;;
72198;SDS011;60103;51.014;16.992;2023-08-01T10:35:09;8.00;;;2.30;;
72198;SDS011;60103;51.014;16.992;2023-08-01T10:37:44;8.00;;;2.30;;
72198;SDS011;60103;51.014;16.992;2023-08-01T10:40:16;8.00;;;2.20;;
72198;SDS011;60103;51.014;16.992;2023-08-01T10:42:45;7.30;;;2.60;;
72198;SDS011;60103;51.014;16.992;2023-08-01T10:45:24;8.50;;;2.70;;
72198;SDS011;60103;51.014;16.992;2023-08-01T10:48:07;7.20;;;2.50;;
72198;SDS011;60103;51.014;16.992;2023-08-01T10:50:39;7.60;;;2.50;;
72198;SDS011;60103;51.014;16.992;2023-08-01T10:53:08;7.90;;;2.70;;
72198;SDS011;60103;51.014;16.992;2023-08-01T10:55:39;7.10;;;2.20;;
72198;SDS011;60103;51.014;16.992;2023-08-01T10:58:12;8.40;;;2.50;;
72198;SDS011;60103;51.014;16.992;2023-08-01T11:00:41;7.00;;;2.20;;
72198;SDS011;60103;51.014;16.992;2023-08-01T11:03:10;7.10;;;2.00;;
72198;SDS011;60103;51.014;16.992;2023-08-01T11:05:39;7.00;;;2.00;;
72198;SDS011;60103;51.014;16.992;2023-08-01T11:08:08;6.80;;;2.00;;
72198;SDS011;60103;51.014;16.992;2023-08-01T11:10:37;7.40;;;2.20;;
72198;SDS011;60103;51.014;16.992;2023-08-01T11:13:11;7.60;;;2.00;;
72198;SDS011;60103;51.014;16.992;2023-08-01T11:15:40;7.90;;;2.20;;
72198;SDS011;60103;51.014;16.992;2023-08-01T11:18:09;7.90;;;2.20;;
72198;SDS011;60103;51.014;16.992;2023-08-01T11:20:38;6.40;;;1.80;;
72198;SDS011;60103;51.014;16.992;2023-08-01T11:23:08;6.50;;;1.80;;
72198;SDS011;60103;51.014;16.992;2023-08-01T11:25:38;7.70;;;2.20;;
72198;SDS011;60103;51.014;16.992;2023-08-01T11:28:09;6.60;;;2.20;;
72198;SDS011;60103;51.014;16.992;2023-08-01T11:30:42;8.30;;;2.00;;
72198;SDS011;60103;51.014;16.992;2023-08-01T11:33:19;6.00;;;1.70;;
72198;SDS011;60103;51.014;16.992;2023-08-01T11:35:52;6.90;;;2.20;;
72198;SDS011;60103;51.014;16.992;2023-08-01T11:38:26;6.80;;;2.00;;
72198;SDS011;60103;51.014;16.992;2023-08-01T11:40:58;6.30;;;2.10;;
72198;SDS011;60103;51.014;16.992;2023-08-01T11:43:37;7.00;;;1.70;;
72198;SDS011;60103;51.014;16.992;2023-08-01T11:46:07;7.10;;;1.70;;
72198;SDS011;60103;51.014;16.992;2023-08-01T11:48:37;6.60;;;1.80;;
72198;SDS011;60103;51.014;16.992;2023-08-01T11:51:05;8.10;;;2.10;;
72198;SDS011;60103;51.014;16.992;2023-08-01T11:53:34;7.40;;;2.00;;
72198;SDS011;60103;51.014;16.992;2023-08-01T11:56:07;6.20;;;1.70;;
72198;SDS011;60103;51.014;16.992;2023-08-01T11:58:37;5.70;;;1.80;;
72198;SDS011;60103;51.014;16.992;2023-08-01T12:01:10;5.70;;;1.90;;
72198;SDS011;60103;51.014;16.992;2023-08-01T12:03:49;6.30;;;1.70;;
72198;SDS011;60103;51.014;16.992;2023-08-01T12:06:20;6.00;;;1.40;;
72198;SDS011;60103;51.014;16.992;2023-08-01T12:08:53;6.90;;;1.70;;
72198;SDS011;60103;51.014;16.992;2023-08-01T12:11:23;5.80;;;1.60;;
72198;SDS011;60103;51.014;16.992;2023-08-01T12:16:41;5.80;;;1.70;;
72198;SDS011;60103;51.014;16.992;2023-08-01T12:19:19;6.70;;;1.80;;
72198;SDS011;60103;51.014;16.992;2023-08-01T12:21:49;6.50;;;1.90;;
72198;SDS011;60103;51.014;16.992;2023-08-01T12:24:18;6.10;;;2.00;;
72198;SDS011;60103;51.014;16.992;2023-08-01T12:26:47;6.10;;;1.90;;
72198;SDS011;60103;51.014;16.992;2023-08-01T12:29:15;5.50;;;1.70;;
72198;SDS011;60103;51.014;16.992;2023-08-01T12:31:44;5.60;;;1.70;;
72198;SDS011;60103;51.014;16.992;2023-08-01T12:34:14;6.40;;;1.80;;
72198;SDS011;60103;51.014;16.992;2023-08-01T12:36:43;5.70;;;1.60;;
72198;SDS011;60103;51.014;16.992;2023-08-01T12:39:12;5.40;;;1.50;;
72198;SDS011;60103;51.014;16.992;2023-08-01T12:41:41;5.50;;;1.60;;
72198;SDS011;60103;51.014;16.992;2023-08-01T12:44:10;6.50;;;1.90;;
72198;SDS011;60103;51.014;16.992;2023-08-01T12:46:39;6.10;;;1.50;;
72198;SDS011;60103;51.014;16.992;2023-08-01T12:49:08;5.10;;;1.50;;
72198;SDS011;60103;51.014;16.992;2023-08-01T12:51:37;5.20;;;1.60;;
72198;SDS011;60103;51.014;16.992;2023-08-01T12:54:06;5.90;;;1.60;;
72198;SDS011;60103;51.014;16.992;2023-08-01T12:56:35;4.90;;;1.40;;
72198;SDS011;60103;51.014;16.992;2023-08-01T12:59:04;6.10;;;1.70;;
72198;SDS011;60103;51.014;16.992;2023-08-01T13:01:33;6.30;;;1.70;;
72198;SDS011;60103;51.014;16.992;2023-08-01T13:04:01;6.40;;;1.70;;
72198;SDS011;60103;51.014;16.992;2023-08-01T13:06:30;6.50;;;1.70;;
72198;SDS011;60103;51.014;16.992;2023-08-01T13:08:59;5.10;;;1.50;;
72198;SDS011;60103;51.014;16.992;2023-08-01T13:11:28;7.00;;;1.40;;
72198;SDS011;60103;51.014;16.992;2023-08-01T13:13:57;5.80;;;1.50;;
72198;SDS011;60103;51.014;16.992;2023-08-01T13:16:26;6.50;;;1.70;;
72198;SDS011;60103;51.014;16.992;2023-08-01T13:18:55;7.40;;;1.70;;
72198;SDS011;60103;51.014;16.992;2023-08-01T13:21:24;5.60;;;1.30;;
72198;SDS011;60103;51.014;16.992;2023-08-01T13:23:52;5.70;;;1.40;;
72198;SDS011;60103;51.014;16.992;2023-08-01T13:26:22;5.80;;;1.60;;
72198;SDS011;60103;51.014;16.992;2023-08-01T13:28:50;6.50;;;1.50;;
72198;SDS011;60103;51.014;16.992;2023-08-01T13:31:20;7.40;;;1.70;;
72198;SDS011;60103;51.014;16.992;2023-08-01T13:33:48;6.40;;;1.60;;
72198;SDS011;60103;51.014;16.992;2023-08-01T13:36:18;5.30;;;1.40;;
72198;SDS011;60103;51.014;16.992;2023-08-01T13:38:47;5.60;;;1.60;;
72198;SDS011;60103;51.014;16.992;2023-08-01T13:41:16;6.80;;;1.60;;
72198;SDS011;60103;51.014;16.992;2023-08-01T13:43:45;4.80;;;1.30;;
72198;SDS011;60103;51.014;16.992;2023-08-01T13:46:15;6.30;;;1.30;;
72198;SDS011;60103;51.014;16.992;2023-08-01T13:48:56;4.70;;;1.20;;
72198;SDS011;60103;51.014;16.992;2023-08-01T13:51:25;6.10;;;1.60;;
72198;SDS011;60103;51.014;16.992;2023-08-01T13:53:56;5.30;;;1.30;;
72198;SDS011;60103;51.014;16.992;2023-08-01T13:56:27;6.00;;;1.80;;
72198;SDS011;60103;51.014;16.992;2023-08-01T13:58:56;4.90;;;1.20;;
72198;SDS011;60103;51.014;16.992;2023-08-01T14:01:25;6.30;;;1.40;;
72198;SDS011;60103;51.014;16.992;2023-08-01T14:03:53;6.90;;;1.30;;
72198;SDS011;60103;51.014;16.992;2023-08-01T14:06:23;5.80;;;1.30;;
72198;SDS011;60103;51.014;16.992;2023-08-01T14:08:52;5.30;;;1.70;;
72198;SDS011;60103;51.014;16.992;2023-08-01T14:11:21;5.40;;;1.50;;
72198;SDS011;60103;51.014;16.992;2023-08-01T14:13:49;5.40;;;1.60;;
72198;SDS011;60103;51.014;16.992;2023-08-01T14:16:18;5.70;;;1.50;;
72198;SDS011;60103;51.014;16.992;2023-08-01T14:18:47;6.10;;;1.30;;
72198;SDS011;60103;51.014;16.992;2023-08-01T14:21:16;6.80;;;1.80;;
72198;SDS011;60103;51.014;16.992;2023-08-01T14:23:45;4.90;;;1.40;;
72198;SDS011;60103;51.014;16.992;2023-08-01T14:26:14;5.50;;;1.50;;
72198;SDS011;60103;51.014;16.992;2023-08-01T14:28:43;5.00;;;1.60;;
72198;SDS011;60103;51.014;16.992;2023-08-01T14:31:12;5.30;;;1.40;;
72198;SDS011;60103;51.014;16.992;2023-08-01T14:33:40;5.80;;;1.30;;
72198;SDS011;60103;51.014;16.992;2023-08-01T14:36:09;5.70;;;1.50;;
72198;SDS011;60103;51.014;16.992;2023-08-01T14:38:40;5.80;;;1.50;;
72198;SDS011;60103;51.014;16.992;2023-08-01T14:41:09;6.40;;;1.40;;
72198;SDS011;60103;51.014;16.992;2023-08-01T14:43:58;5.90;;;1.60;;
72198;SDS011;60103;51.014;16.992;2023-08-01T14:46:27;6.70;;;2.10;;
72198;SDS011;60103;51.014;16.992;2023-08-01T14:48:56;5.80;;;1.50;;
72198;SDS011;60103;51.014;16.992;2023-08-01T14:51:25;5.80;;;1.20;;
72198;SDS011;60103;51.014;16.992;2023-08-01T14:53:53;5.50;;;1.40;;